Observation data for Clarendon on 08/13/2019      Previous  Date       Current Mesonet Observations  Soil Data  Daily Summary Page  Observations in Plain Language
KCES 130500Z 01016G21KT 22/19 A3003 RMK A01 T02180189  RH  088%=      5-min Rain = 0.01
KCES 130505Z 02015G20KT 22/19 A3003 RMK A01 T02180188  RH  088%=      5-min Rain = 0
KCES 130510Z 03016G21KT 22/19 A3003 RMK A01 T02180188  RH  088%=      5-min Rain = 0
KCES 130515Z 03016G21KT 22/19 A3003 RMK A01 T02180188  RH  087%=      5-min Rain = 0
KCES 130520Z 04015G20KT 22/19 A3003 RMK A01 T02170187  RH  087%=      5-min Rain = 0
KCES 130525Z 04015G21KT 22/19 A3003 RMK A01 T02170187  RH  087%=      5-min Rain = 0
KCES 130530Z 04014G19KT 22/19 A3003 RMK A01 T02160187  RH  088%=      5-min Rain = 0.01
KCES 130535Z 02013KT 22/19 A3004 RMK A01 T02150187  RH  089%=      5-min Rain = 0
KCES 130540Z 01013G18KT 21/19 A3005 RMK A01 T02140187  RH  089%=      5-min Rain = 0
KCES 130545Z 02013KT 21/19 A3005 RMK A01 T02140187  RH  089%=      5-min Rain = 0.02
KCES 130550Z 04017KT 21/19 A3004 RMK A01 T02140187  RH  089%=      5-min Rain = 0.03
KCES 130555Z 05017G23KT 21/19 A3003 RMK A01 T02120187  RH  090%=      5-min Rain = 0
KCES 130600Z 06016G22KT 21/19 A3003 RMK A01 T02120187  RH  091%=      5-min Rain = 0
KCES 130605Z 07017G22KT 21/19 A3002 RMK A01 T02120188  RH  091%=      5-min Rain = 0
KCES 130610Z 06014G20KT 21/19 A3002 RMK A01 T02130188  RH  091%=      5-min Rain = 0
KCES 130615Z 05014KT 21/19 A3002 RMK A01 T02130188  RH  091%=      5-min Rain = 0
KCES 130620Z 06015G20KT 21/19 A3001 RMK A01 T02120189  RH  091%=      5-min Rain = 0
KCES 130625Z 07016G21KT 21/19 A30 RMK A01 T02120189  RH  091%=      5-min Rain = 0
KCES 130630Z 07014G20KT 21/19 A30 RMK A01 T02120189  RH  091%=      5-min Rain = 0
KCES 130635Z 07013G19KT 21/19 A30 RMK A01 T02130189  RH  091%=      5-min Rain = 0
KCES 130640Z 08013G18KT 21/19 A30 RMK A01 T02130189  RH  091%=      5-min Rain = 0
KCES 130645Z 07012KT 21/19 A30 RMK A01 T02140189  RH  091%=      5-min Rain = 0
KCES 130650Z 07012KT 21/19 A30 RMK A01 T02140189  RH  090%=      5-min Rain = 0
KCES 130655Z 07013G18KT 22/19 A30 RMK A01 T02150189  RH  090%=      5-min Rain = 0
KCES 130700Z 08013G18KT 22/19 A30 RMK A01 T02150190  RH  090%=      5-min Rain = 0
KCES 130705Z 07011KT 22/19 A3001 RMK A01 T02150190  RH  091%=      5-min Rain = 0
KCES 130710Z 07013G19KT 21/19 A30 RMK A01 T02140190  RH  091%=      5-min Rain = 0
KCES 130715Z 07014G21KT 21/19 A30 RMK A01 T02130189  RH  091%=      5-min Rain = 0
KCES 130720Z 08017G22KT 21/19 A2999 RMK A01 T02130189  RH  091%=      5-min Rain = 0
KCES 130725Z 09016G21KT 21/19 A2999 RMK A01 T02140189  RH  090%=      5-min Rain = 0
KCES 130730Z 09017G24KT 22/19 A2998 RMK A01 T02160189  RH  089%=      5-min Rain = 0
KCES 130735Z 10017G22KT 22/19 A2998 RMK A01 T02170189  RH  088%=      5-min Rain = 0
KCES 130740Z 10018G26KT 22/19 A2997 RMK A01 T02200188  RH  087%=      5-min Rain = 0
KCES 130745Z 10017G23KT 22/19 A2998 RMK A01 T02220188  RH  086%=      5-min Rain = 0
KCES 130750Z 09015G20KT 22/19 A2998 RMK A01 T02240188  RH  085%=      5-min Rain = 0
KCES 130755Z 09015KT 22/19 A2998 RMK A01 T02240188  RH  084%=      5-min Rain = 0
KCES 130800Z 08013G18KT 22/19 A2998 RMK A01 T02240187  RH  084%=      5-min Rain = 0
KCES 130805Z 08014KT 22/19 A2998 RMK A01 T02240187  RH  084%=      5-min Rain = 0
KCES 130810Z 07012G17KT 22/19 A2999 RMK A01 T02230187  RH  084%=      5-min Rain = 0
KCES 130815Z 06012KT 22/19 A2999 RMK A01 T02230187  RH  085%=      5-min Rain = 0
KCES 130820Z 05012G17KT 22/19 A30 RMK A01 T02210188  RH  086%=      5-min Rain = 0
KCES 130825Z 06013KT 22/19 A30 RMK A01 T02190188  RH  087%=      5-min Rain = 0
KCES 130830Z 06013KT 22/19 A30 RMK A01 T02170188  RH  088%=      5-min Rain = 0
KCES 130835Z 05012KT 22/19 A30 RMK A01 T02160188  RH  089%=      5-min Rain = 0
KCES 130840Z 07010KT 22/19 A30 RMK A01 T02150188  RH  089%=      5-min Rain = 0
KCES 130845Z 09009KT 22/19 A2999 RMK A01 T02150188  RH  089%=      5-min Rain = 0
KCES 130850Z 10007KT 22/19 A2999 RMK A01 T02170187  RH  088%=      5-min Rain = 0
KCES 130855Z 10009KT 22/19 A2998 RMK A01 T02180188  RH  087%=      5-min Rain = 0
KCES 130900Z 11009KT 22/19 A2997 RMK A01 T02200187  RH  086%=      5-min Rain = 0
KCES 130905Z 12011KT 22/19 A2997 RMK A01 T02220187  RH  085%=      5-min Rain = 0
KCES 130910Z 12010KT 22/19 A2997 RMK A01 T02240185  RH  083%=      5-min Rain = 0
KCES 130915Z 12009KT 23/19 A2997 RMK A01 T02260185  RH  082%=      5-min Rain = 0
KCES 130920Z 12009KT 23/18 A2996 RMK A01 T02280183  RH  080%=      5-min Rain = 0
KCES 130925Z 13009KT 23/18 A2996 RMK A01 T02300183  RH  079%=      5-min Rain = 0
KCES 130930Z 13009KT 23/18 A2996 RMK A01 T02290183  RH  079%=      5-min Rain = 0
KCES 130935Z 13008KT 23/18 A2997 RMK A01 T02270184  RH  081%=      5-min Rain = 0
KCES 130940Z 14006KT 23/18 A2997 RMK A01 T02250184  RH  082%=      5-min Rain = 0
KCES 130945Z 12005KT 23/18 A2997 RMK A01 T02250184  RH  082%=      5-min Rain = 0
KCES 130950Z 09003KT 23/18 A2998 RMK A01 T02250184  RH  082%=      5-min Rain = 0
KCES 130955Z 09004KT 23/18 A2998 RMK A01 T02250184  RH  082%=      5-min Rain = 0
KCES 131000Z 11003KT 23/18 A2999 RMK A01 T02250184  RH  082%=      5-min Rain = 0
KCES 131005Z 04004KT 22/18 A2999 RMK A01 T02240184  RH  082%=      5-min Rain = 0
KCES 131010Z 01005KT 22/18 A2999 RMK A01 T02210184  RH  084%=      5-min Rain = 0
KCES 131015Z 35005KT 22/19 A30 RMK A01 T02180185  RH  086%=      5-min Rain = 0
KCES 131020Z 33007KT 22/18 A30 RMK A01 T02150184  RH  087%=      5-min Rain = 0
KCES 131025Z 33005KT 21/19 A30 RMK A01 T02130185  RH  089%=      5-min Rain = 0
KCES 131030Z 32005KT 21/18 A2999 RMK A01 T02110184  RH  089%=      5-min Rain = 0
KCES 131035Z 32005KT 21/18 A30 RMK A01 T02100184  RH  090%=      5-min Rain = 0
KCES 131040Z 30003KT 21/18 A30 RMK A01 T02090184  RH  090%=      5-min Rain = 0
KCES 131045Z 32001KT 21/18 A3001 RMK A01 T02090183  RH  090%=      5-min Rain = 0
KCES 131050Z 34001KT 21/18 A3001 RMK A01 T02090183  RH  090%=      5-min Rain = 0
KCES 131055Z 34004KT 21/18 A3001 RMK A01 T02080183  RH  090%=      5-min Rain = 0
KCES 131100Z 34005KT 21/18 A3001 RMK A01 T02050181  RH  091%=      5-min Rain = 0
KCES 131105Z 35005KT 21/18 A3001 RMK A01 T02050182  RH  091%=      5-min Rain = 0
KCES 131110Z 34005KT 21/18 A3001 RMK A01 T02050182  RH  092%=      5-min Rain = 0
KCES 131115Z 33006KT 21/18 A3001 RMK A01 T02050183  RH  092%=      5-min Rain = 0
KCES 131120Z 33006KT 21/18 A3002 RMK A01 T02060184  RH  092%=      5-min Rain = 0
KCES 131125Z 34007KT 21/19 A3002 RMK A01 T02070185  RH  092%=      5-min Rain = 0
KCES 131130Z 33008KT 21/19 A3002 RMK A01 T02070185  RH  092%=      5-min Rain = 0
KCES 131135Z 34008KT 21/19 A3002 RMK A01 T02060185  RH  092%=      5-min Rain = 0
KCES 131140Z 34007KT 21/19 A3003 RMK A01 T02060185  RH  093%=      5-min Rain = 0
KCES 131145Z 33008KT 21/19 A3003 RMK A01 T02050185  RH  093%=      5-min Rain = 0
KCES 131150Z 33007KT 21/18 A3003 RMK A01 T02050184  RH  093%=      5-min Rain = 0
KCES 131155Z 33006KT 20/18 A3003 RMK A01 T02040184  RH  093%=      5-min Rain = 0
KCES 131200Z 34005KT 20/18 A3003 RMK A01 T02040184  RH  093%=      5-min Rain = 0
KCES 131205Z 35005KT 20/18 A3003 RMK A01 T02030184  RH  093%=      5-min Rain = 0
KCES 131210Z 35005KT 20/18 A3003 RMK A01 T02030183  RH  093%=      5-min Rain = 0
KCES 131215Z 35005KT 20/18 A3004 RMK A01 T02030183  RH  094%=      5-min Rain = 0
KCES 131220Z 36005KT 20/18 A3004 RMK A01 T02020183  RH  094%=      5-min Rain = 0
KCES 131225Z 00004KT 20/18 A3004 RMK A01 T02020183  RH  094%=      5-min Rain = 0
KCES 131230Z 00005KT 20/18 A3004 RMK A01 T02030184  RH  094%=      5-min Rain = 0
KCES 131235Z 36005KT 20/19 A3004 RMK A01 T02030185  RH  094%=      5-min Rain = 0
KCES 131240Z 00005KT 20/19 A3004 RMK A01 T02040185  RH  094%=      5-min Rain = 0
KCES 131245Z 00005KT 21/19 A3005 RMK A01 T02050186  RH  094%=      5-min Rain = 0
KCES 131250Z 36005KT 21/19 A3005 RMK A01 T02060187  RH  094%=      5-min Rain = 0
KCES 131255Z 00006KT 21/19 A3005 RMK A01 T02070188  RH  094%=      5-min Rain = 0
KCES 131300Z 00007KT 21/19 A3005 RMK A01 T02080188  RH  094%=      5-min Rain = 0
KCES 131305Z 00007KT 21/19 A3006 RMK A01 T02080188  RH  093%=      5-min Rain = 0
KCES 131310Z 36006KT 21/19 A3006 RMK A01 T02100189  RH  093%=      5-min Rain = 0
KCES 131315Z 36006KT 21/19 A3006 RMK A01 T02110189  RH  093%=      5-min Rain = 0
KCES 131320Z 36006KT 21/19 A3006 RMK A01 T02120190  RH  092%=      5-min Rain = 0
KCES 131325Z 36007KT 21/19 A3006 RMK A01 T02130189  RH  091%=      5-min Rain = 0
KCES 131330Z 00007KT 21/19 A3006 RMK A01 T02140188  RH  090%=      5-min Rain = 0
KCES 131335Z 36007KT 22/19 A3006 RMK A01 T02160187  RH  088%=      5-min Rain = 0
KCES 131340Z 35007KT 22/19 A3007 RMK A01 T02180186  RH  087%=      5-min Rain = 0
KCES 131345Z 36006KT 22/19 A3007 RMK A01 T02200186  RH  086%=      5-min Rain = 0
KCES 131350Z 00007KT 22/19 A3007 RMK A01 T02230187  RH  085%=      5-min Rain = 0
KCES 131355Z 01007KT 23/19 A3007 RMK A01 T02250187  RH  083%=      5-min Rain = 0
KCES 131400Z 01007KT 23/19 A3007 RMK A01 T02270187  RH  083%=      5-min Rain = 0
KCES 131405Z 00007KT 23/19 A3007 RMK A01 T02280188  RH  082%=      5-min Rain = 0
KCES 131410Z 01007KT 23/19 A3008 RMK A01 T02310189  RH  082%=      5-min Rain = 0
KCES 131415Z 01008KT 23/19 A3008 RMK A01 T02320187  RH  080%=      5-min Rain = 0
KCES 131420Z 01007KT 23/19 A3008 RMK A01 T02340188  RH  079%=      5-min Rain = 0
KCES 131425Z 01007KT 24/19 A3007 RMK A01 T02350188  RH  079%=      5-min Rain = 0
KCES 131430Z 03007KT 24/19 A3008 RMK A01 T02360185  RH  077%=      5-min Rain = 0
KCES 131435Z 01006KT 24/19 A3008 RMK A01 T02390187  RH  077%=      5-min Rain = 0
KCES 131440Z 01007KT 24/19 A3008 RMK A01 T02430191  RH  077%=      5-min Rain = 0
KCES 131445Z 01006KT 25/19 A3008 RMK A01 T02450192  RH  076%=      5-min Rain = 0
KCES 131450Z 01008KT 25/19 A3008 RMK A01 T02460189  RH  074%=      5-min Rain = 0
KCES 131455Z 01006KT 25/19 A3008 RMK A01 T02480188  RH  073%=      5-min Rain = 0
KCES 131500Z 01006KT 25/19 A3008 RMK A01 T02530187  RH  070%=      5-min Rain = 0
KCES 131505Z 35006KT 25/19 A3009 RMK A01 T02530189  RH  071%=      5-min Rain = 0
KCES 131510Z 36006KT 26/19 A3009 RMK A01 T02570186  RH  069%=      5-min Rain = 0
KCES 131515Z 35007KT 26/19 A3009 RMK A01 T02600185  RH  067%=      5-min Rain = 0
KCES 131520Z 35008KT 26/19 A3009 RMK A01 T02620185  RH  066%=      5-min Rain = 0
KCES 131525Z 00008KT 27/18 A3009 RMK A01 T02650184  RH  064%=      5-min Rain = 0
KCES 131530Z 36008KT 27/18 A3009 RMK A01 T02670182  RH  063%=      5-min Rain = 0
KCES 131535Z 00008KT 27/18 A3009 RMK A01 T02690182  RH  062%=      5-min Rain = 0
KCES 131540Z 00008KT 27/18 A3009 RMK A01 T02740182  RH  060%=      5-min Rain = 0
KCES 131545Z 00008KT 28/19 A3009 RMK A01 T02750185  RH  061%=      5-min Rain = 0
KCES 131550Z 01009KT 28/19 A3009 RMK A01 T02780186  RH  060%=      5-min Rain = 0
KCES 131555Z 00008KT 28/18 A3009 RMK A01 T02800184  RH  059%=      5-min Rain = 0
KCES 131600Z 01009KT 28/18 A3009 RMK A01 T02810184  RH  059%=      5-min Rain = 0
KCES 131605Z 02008KT 28/19 A3009 RMK A01 T02840186  RH  058%=      5-min Rain = 0
KCES 131610Z 03009KT 28/19 A3009 RMK A01 T02840186  RH  058%=      5-min Rain = 0
KCES 131615Z 02008KT 29/19 A3009 RMK A01 T02860186  RH  058%=      5-min Rain = 0
KCES 131620Z 01009KT 29/19 A301 RMK A01 T02880189  RH  058%=      5-min Rain = 0
KCES 131625Z 01008KT 29/19 A301 RMK A01 T02860189  RH  059%=      5-min Rain = 0
KCES 131630Z 03008G14KT 29/19 A301 RMK A01 T02880188  RH  058%=      5-min Rain = 0
KCES 131635Z 03009G15KT 29/19 A301 RMK A01 T02900187  RH  057%=      5-min Rain = 0
KCES 131640Z 04009KT 30/19 A301 RMK A01 T02950186  RH  055%=      5-min Rain = 0
KCES 131645Z 05009KT 30/19 A301 RMK A01 T02960189  RH  056%=      5-min Rain = 0
KCES 131650Z 02009G14KT 29/19 A301 RMK A01 T02930191  RH  057%=      5-min Rain = 0
KCES 131655Z 03010KT 29/19 A301 RMK A01 T02930187  RH  056%=      5-min Rain = 0
KCES 131700Z 03010G17KT 29/19 A301 RMK A01 T02940185  RH  055%=      5-min Rain = 0
KCES 131705Z 04011KT 29/18 A301 RMK A01 T02940183  RH  054%=      5-min Rain = 0
KCES 131710Z 04008KT 29/18 A301 RMK A01 T02940183  RH  054%=      5-min Rain = 0
KCES 131715Z 02010KT 30/19 A301 RMK A01 T03000185  RH  053%=      5-min Rain = 0
KCES 131720Z 05010KT 30/18 A301 RMK A01 T02990182  RH  052%=      5-min Rain = 0
KCES 131725Z 03011KT 30/18 A301 RMK A01 T03020179  RH  050%=      5-min Rain = 0
KCES 131730Z 03010G15KT 30/18 A301 RMK A01 T03010179  RH  051%=      5-min Rain = 0
KCES 131735Z 03009KT 31/18 A301 RMK A01 T03050182  RH  051%=      5-min Rain = 0
KCES 131740Z 02010G17KT 31/18 A301 RMK A01 T03070181  RH  050%=      5-min Rain = 0
KCES 131745Z 04010KT 31/18 A301 RMK A01 T03060180  RH  049%=      5-min Rain = 0
KCES 131750Z 06009KT 31/18 A301 RMK A01 T03050179  RH  049%=      5-min Rain = 0
KCES 131755Z 05008KT 31/18 A301 RMK A01 T03050180  RH  050%=      5-min Rain = 0
KCES 131800Z 03009G14KT 31/18 A301 RMK A01 T03060181  RH  050%=      5-min Rain = 0
KCES 131805Z 04007KT 31/18 A3009 RMK A01 T03080182  RH  050%=      5-min Rain = 0
KCES 131810Z 05009KT 31/18 A3009 RMK A01 T03100179  RH  048%=      5-min Rain = 0
KCES 131815Z 04009KT 31/18 A3009 RMK A01 T03090179  RH  048%=      5-min Rain = 0
KCES 131820Z 04008G14KT 31/18 A3009 RMK A01 T03110180  RH  048%=      5-min Rain = 0
KCES 131825Z 06009G14KT 31/18 A3009 RMK A01 T03110181  RH  048%=      5-min Rain = 0
KCES 131830Z 05008KT 31/18 A3009 RMK A01 T03120178  RH  047%=      5-min Rain = 0
KCES 131835Z 04010KT 31/17 A3009 RMK A01 T03130171  RH  045%=      5-min Rain = 0
KCES 131840Z 06010G15KT 31/17 A3009 RMK A01 T03140172  RH  045%=      5-min Rain = 0
KCES 131845Z 08008G14KT 31/18 A3009 RMK A01 T03140175  RH  046%=      5-min Rain = 0
KCES 131850Z 07013KT 32/17 A3009 RMK A01 T03150171  RH  044%=      5-min Rain = 0
KCES 131855Z 07011KT 32/17 A3009 RMK A01 T03150169  RH  044%=      5-min Rain = 0
KCES 131900Z 08009G14KT 31/17 A3009 RMK A01 T03130170  RH  045%=      5-min Rain = 0
KCES 131905Z 06009G15KT 31/17 A3009 RMK A01 T03140166  RH  043%=      5-min Rain = 0
KCES 131910Z 06010G16KT 32/17 A3008 RMK A01 T03160168  RH  043%=      5-min Rain = 0
KCES 131915Z 05009KT 32/17 A3009 RMK A01 T03170169  RH  043%=      5-min Rain = 0
KCES 131920Z 05009G14KT 32/17 A3009 RMK A01 T03180174  RH  044%=      5-min Rain = 0
KCES 131925Z 08010KT 32/18 A3009 RMK A01 T03170177  RH  045%=      5-min Rain = 0
KCES 131930Z 06008G14KT 32/17 A3009 RMK A01 T03170174  RH  045%=      5-min Rain = 0
KCES 131935Z 09010G15KT 32/18 A3009 RMK A01 T03190177  RH  045%=      5-min Rain = 0
KCES 131940Z 09009G15KT 32/17 A3009 RMK A01 T03210174  RH  044%=      5-min Rain = 0
KCES 131945Z 08010KT 32/18 A3009 RMK A01 T03200175  RH  044%=      5-min Rain = 0
KCES 131950Z 08010G16KT 32/17 A3008 RMK A01 T03170172  RH  044%=      5-min Rain = 0
KCES 131955Z 07009G14KT 32/18 A3008 RMK A01 T03160177  RH  046%=      5-min Rain = 0
KCES 132000Z 09009G15KT 32/18 A3008 RMK A01 T03180178  RH  046%=      5-min Rain = 0
KCES 132005Z 07010KT 32/18 A3008 RMK A01 T03160176  RH  046%=      5-min Rain = 0
KCES 132010Z 06009G14KT 32/18 A3008 RMK A01 T03160175  RH  045%=      5-min Rain = 0
KCES 132015Z 10010G15KT 32/17 A3007 RMK A01 T03150173  RH  045%=      5-min Rain = 0
KCES 132020Z 07010G15KT 32/17 A3007 RMK A01 T03170170  RH  044%=      5-min Rain = 0
KCES 132025Z 07008G13KT 32/17 A3007 RMK A01 T03170170  RH  044%=      5-min Rain = 0
KCES 132030Z 10008G14KT 32/17 A3007 RMK A01 T03170173  RH  044%=      5-min Rain = 0
KCES 132035Z 09010KT 32/17 A3007 RMK A01 T03180169  RH  043%=      5-min Rain = 0
KCES 132040Z 09007KT 32/17 A3007 RMK A01 T03180169  RH  043%=      5-min Rain = 0
KCES 132045Z 07008KT 32/17 A3007 RMK A01 T03210168  RH  042%=      5-min Rain = 0
KCES 132050Z 08006KT 32/17 A3007 RMK A01 T03230169  RH  042%=      5-min Rain = 0
KCES 132055Z 09006G11KT 32/17 A3007 RMK A01 T03220171  RH  043%=      5-min Rain = 0
KCES 132100Z 07009G14KT 32/17 A3006 RMK A01 T03210167  RH  042%=      5-min Rain = 0
KCES 132105Z 09010KT 32/16 A3006 RMK A01 T03210164  RH  041%=      5-min Rain = 0
KCES 132110Z 08008KT 32/17 A3006 RMK A01 T03200165  RH  041%=      5-min Rain = 0
KCES 132115Z 08009G14KT 32/17 A3006 RMK A01 T03230166  RH  041%=      5-min Rain = 0
KCES 132120Z 09010KT 32/17 A3006 RMK A01 T03240166  RH  041%=      5-min Rain = 0
KCES 132125Z 07007G15KT 32/17 A3006 RMK A01 T03210167  RH  042%=      5-min Rain = 0
KCES 132130Z 08009G14KT 32/17 A3006 RMK A01 T03240168  RH  041%=      5-min Rain = 0
KCES 132135Z 09008G13KT 32/16 A3006 RMK A01 T03200163  RH  041%=      5-min Rain = 0
KCES 132140Z 06010G15KT 32/16 A3005 RMK A01 T03210161  RH  040%=      5-min Rain = 0
KCES 132145Z 08006KT 32/16 A3005 RMK A01 T03200164  RH  041%=      5-min Rain = 0
KCES 132150Z 09010G15KT 33/16 A3005 RMK A01 T03250164  RH  040%=      5-min Rain = 0
KCES 132155Z 10008G16KT 32/16 A3005 RMK A01 T03230163  RH  040%=      5-min Rain = 0
KCES 132200Z 08010KT 33/17 A3005 RMK A01 T03270165  RH  040%=      5-min Rain = 0
KCES 132205Z 07009G15KT 33/16 A3004 RMK A01 T03250160  RH  039%=      5-min Rain = 0
KCES 132210Z 07008KT 32/16 A3004 RMK A01 T03240161  RH  039%=      5-min Rain = 0
KCES 132215Z 06010G15KT 32/17 A3004 RMK A01 T03220166  RH  041%=      5-min Rain = 0
KCES 132220Z 08009G14KT 32/17 A3004 RMK A01 T03220165  RH  041%=      5-min Rain = 0
KCES 132225Z 05008G14KT 32/16 A3004 RMK A01 T03230163  RH  040%=      5-min Rain = 0
KCES 132230Z 08008KT 32/17 A3004 RMK A01 T03200165  RH  041%=      5-min Rain = 0
KCES 132235Z 09009KT 32/17 A3004 RMK A01 T03210166  RH  041%=      5-min Rain = 0
KCES 132240Z 07009KT 32/16 A3004 RMK A01 T03210164  RH  041%=      5-min Rain = 0
KCES 132245Z 09010KT 32/17 A3004 RMK A01 T03190166  RH  042%=      5-min Rain = 0
KCES 132250Z 08009KT 32/17 A3004 RMK A01 T03200167  RH  042%=      5-min Rain = 0
KCES 132255Z 08009KT 32/17 A3004 RMK A01 T03200165  RH  042%=      5-min Rain = 0
KCES 132300Z 09011KT 32/17 A3004 RMK A01 T03210168  RH  042%=      5-min Rain = 0
KCES 132305Z 09010G16KT 32/17 A3004 RMK A01 T03200168  RH  042%=      5-min Rain = 0
KCES 132310Z 08010G15KT 32/17 A3004 RMK A01 T03190172  RH  043%=      5-min Rain = 0
KCES 132315Z 07010KT 32/17 A3004 RMK A01 T03190171  RH  043%=      5-min Rain = 0
KCES 132320Z 07009G14KT 32/17 A3004 RMK A01 T03190169  RH  043%=      5-min Rain = 0
KCES 132325Z 08009G15KT 32/17 A3004 RMK A01 T03170168  RH  043%=      5-min Rain = 0
KCES 132330Z 06008KT 32/17 A3004 RMK A01 T03170167  RH  043%=      5-min Rain = 0
KCES 132335Z 10008KT 32/17 A3004 RMK A01 T03190166  RH  042%=      5-min Rain = 0
KCES 132340Z 08009KT 32/17 A3004 RMK A01 T03190168  RH  043%=      5-min Rain = 0
KCES 132345Z 07009KT 32/17 A3004 RMK A01 T03170171  RH  044%=      5-min Rain = 0
KCES 132350Z 08010KT 32/17 A3004 RMK A01 T03150171  RH  044%=      5-min Rain = 0
KCES 132355Z 08009G14KT 31/17 A3004 RMK A01 T03130171  RH  045%=      5-min Rain = 0
KCES 140000Z 08008KT 32/17 A3005 RMK A01 T03150170  RH  044%=      5-min Rain = 0
KCES 140005Z 09010KT 31/17 A3005 RMK A01 T03140173  RH  045%=      5-min Rain = 0
KCES 140010Z 08009KT 31/17 A3005 RMK A01 T03110174  RH  046%=      5-min Rain = 0
KCES 140015Z 07010KT 31/17 A3005 RMK A01 T03100174  RH  046%=      5-min Rain = 0
KCES 140020Z 08010KT 31/17 A3005 RMK A01 T03090173  RH  047%=      5-min Rain = 0
KCES 140025Z 08009KT 31/18 A3005 RMK A01 T03090175  RH  047%=      5-min Rain = 0
KCES 140030Z 08010KT 31/17 A3005 RMK A01 T03070173  RH  047%=      5-min Rain = 0
KCES 140035Z 09009KT 30/17 A3005 RMK A01 T03040172  RH  047%=      5-min Rain = 0
KCES 140040Z 09009KT 30/17 A3005 RMK A01 T03040173  RH  048%=      5-min Rain = 0
KCES 140045Z 08010KT 30/17 A3005 RMK A01 T03020174  RH  049%=      5-min Rain = 0
KCES 140050Z 08010KT 30/17 A3005 RMK A01 T02990174  RH  050%=      5-min Rain = 0
KCES 140055Z 09010KT 30/17 A3005 RMK A01 T02980174  RH  050%=      5-min Rain = 0
KCES 140100Z 08009KT 30/18 A3005 RMK A01 T02960175  RH  051%=      5-min Rain = 0
KCES 140105Z 08009KT 29/18 A3005 RMK A01 T02940175  RH  051%=      5-min Rain = 0
KCES 140110Z 08008KT 29/18 A3005 RMK A01 T02920176  RH  052%=      5-min Rain = 0
KCES 140115Z 08007KT 29/18 A3006 RMK A01 T02910175  RH  052%=      5-min Rain = 0
KCES 140120Z 08006KT 29/18 A3006 RMK A01 T02890175  RH  053%=      5-min Rain = 0
KCES 140125Z 09005KT 29/18 A3006 RMK A01 T02870176  RH  054%=      5-min Rain = 0
KCES 140130Z 08005KT 28/18 A3007 RMK A01 T02840176  RH  055%=      5-min Rain = 0
KCES 140135Z 08005KT 28/18 A3007 RMK A01 T02820177  RH  056%=      5-min Rain = 0
KCES 140140Z 08006KT 28/18 A3007 RMK A01 T02790178  RH  057%=      5-min Rain = 0
KCES 140145Z 08005KT 28/18 A3007 RMK A01 T02760179  RH  058%=      5-min Rain = 0
KCES 140150Z 09004KT 27/18 A3008 RMK A01 T02730179  RH  059%=      5-min Rain = 0
KCES 140155Z 09004KT 27/18 A3008 RMK A01 T02710179  RH  060%=      5-min Rain = 0
KCES 140200Z 08005KT 27/18 A3008 RMK A01 T02690179  RH  061%=      5-min Rain = 0
KCES 140205Z 08005KT 27/18 A3009 RMK A01 T02660180  RH  062%=      5-min Rain = 0
KCES 140210Z 08005KT 26/18 A3009 RMK A01 T02640180  RH  063%=      5-min Rain = 0
KCES 140215Z 08006KT 26/18 A301 RMK A01 T02610181  RH  064%=      5-min Rain = 0
KCES 140220Z 07006KT 26/18 A301 RMK A01 T02600181  RH  065%=      5-min Rain = 0
KCES 140225Z 06006KT 26/18 A3011 RMK A01 T02580182  RH  066%=      5-min Rain = 0
KCES 140230Z 07006KT 26/18 A3011 RMK A01 T02590181  RH  066%=      5-min Rain = 0
KCES 140235Z 07006KT 26/18 A3011 RMK A01 T02600181  RH  065%=      5-min Rain = 0
KCES 140240Z 07006KT 26/18 A3011 RMK A01 T02620180  RH  064%=      5-min Rain = 0
KCES 140245Z 08006KT 26/18 A3012 RMK A01 T02610180  RH  064%=      5-min Rain = 0
KCES 140250Z 09006KT 26/18 A3011 RMK A01 T02600180  RH  065%=      5-min Rain = 0
KCES 140255Z 10006KT 26/18 A3011 RMK A01 T02590180  RH  065%=      5-min Rain = 0
KCES 140300Z 11006KT 26/18 A3011 RMK A01 T02580182  RH  066%=      5-min Rain = 0
KCES 140305Z 10006KT 26/18 A3011 RMK A01 T02550183  RH  068%=      5-min Rain = 0
KCES 140310Z 11006KT 25/18 A3011 RMK A01 T02520183  RH  069%=      5-min Rain = 0
KCES 140315Z 11007KT 25/18 A3011 RMK A01 T02510183  RH  070%=      5-min Rain = 0
KCES 140320Z 11006KT 25/18 A3011 RMK A01 T02510182  RH  069%=      5-min Rain = 0
KCES 140325Z 11005KT 25/18 A3012 RMK A01 T02510182  RH  069%=      5-min Rain = 0
KCES 140330Z 11004KT 25/18 A3012 RMK A01 T02500181  RH  069%=      5-min Rain = 0
KCES 140335Z 10005KT 25/18 A3012 RMK A01 T02490181  RH  070%=      5-min Rain = 0
KCES 140340Z 10005KT 25/18 A3013 RMK A01 T02470181  RH  070%=      5-min Rain = 0
KCES 140345Z 09005KT 25/18 A3013 RMK A01 T02470180  RH  070%=      5-min Rain = 0
KCES 140350Z 09005KT 25/18 A3013 RMK A01 T02470180  RH  070%=      5-min Rain = 0
KCES 140355Z 09004KT 25/18 A3013 RMK A01 T02460180  RH  070%=      5-min Rain = 0
KCES 140400Z 09005KT 25/18 A3013 RMK A01 T02450180  RH  071%=      5-min Rain = 0
KCES 140405Z 09005KT 25/18 A3013 RMK A01 T02450179  RH  071%=      5-min Rain = 0
KCES 140410Z 09005KT 24/18 A3013 RMK A01 T02440178  RH  070%=      5-min Rain = 0
KCES 140415Z 10005KT 25/18 A3014 RMK A01 T02450177  RH  069%=      5-min Rain = 0
KCES 140420Z 11005KT 25/18 A3014 RMK A01 T02450178  RH  070%=      5-min Rain = 0
KCES 140425Z 11005KT 24/18 A3014 RMK A01 T02410179  RH  072%=      5-min Rain = 0
KCES 140430Z 09005KT 24/18 A3014 RMK A01 T02390179  RH  073%=      5-min Rain = 0
KCES 140435Z 08005KT 24/18 A3014 RMK A01 T02380178  RH  073%=      5-min Rain = 0
KCES 140440Z 09006KT 24/18 A3014 RMK A01 T02370178  RH  073%=      5-min Rain = 0
KCES 140445Z 09005KT 24/18 A3014 RMK A01 T02380177  RH  072%=      5-min Rain = 0
KCES 140450Z 08005KT 24/18 A3014 RMK A01 T02380177  RH  072%=      5-min Rain = 0
KCES 140455Z 07005KT 24/18 A3015 RMK A01 T02370176  RH  072%=      5-min Rain = 0

Page generated in 0.0252 seconds.